sensor_id;sensor_type;location;lat;lon;timestamp;pressure;altitude;pressure_sealevel;temperature;humidity
10060;BME280;5069;49.306;8.636;2023-08-08T00:00:14;100580.06;;;16.31;97.46
10060;BME280;5069;49.306;8.636;2023-08-08T00:03:16;100582.44;;;16.20;97.97
10060;BME280;5069;49.306;8.636;2023-08-08T00:06:17;100587.75;;;16.20;98.80
10060;BME280;5069;49.306;8.636;2023-08-08T00:09:19;100582.28;;;16.23;98.92
10060;BME280;5069;49.306;8.636;2023-08-08T00:12:20;100576.00;;;16.24;99.99
10060;BME280;5069;49.306;8.636;2023-08-08T00:15:22;100578.38;;;16.12;99.16
10060;BME280;5069;49.306;8.636;2023-08-08T00:18:23;100574.97;;;16.10;98.45
10060;BME280;5069;49.306;8.636;2023-08-08T00:21:25;100576.84;;;16.08;99.56
10060;BME280;5069;49.306;8.636;2023-08-08T00:24:26;100573.31;;;16.08;100.00
10060;BME280;5069;49.306;8.636;2023-08-08T00:27:28;100577.38;;;16.15;99.04
10060;BME280;5069;49.306;8.636;2023-08-08T00:30:29;100572.19;;;16.12;97.51
10060;BME280;5069;49.306;8.636;2023-08-08T00:33:31;100574.97;;;16.10;98.52
10060;BME280;5069;49.306;8.636;2023-08-08T00:36:33;100570.84;;;16.05;99.42
10060;BME280;5069;49.306;8.636;2023-08-08T00:39:34;100571.38;;;16.11;98.30
10060;BME280;5069;49.306;8.636;2023-08-08T00:42:36;100565.34;;;16.08;99.07
10060;BME280;5069;49.306;8.636;2023-08-08T00:45:38;100566.19;;;16.08;99.93
10060;BME280;5069;49.306;8.636;2023-08-08T00:48:41;100569.25;;;16.01;98.72
10060;BME280;5069;49.306;8.636;2023-08-08T00:51:43;100567.38;;;16.03;99.26
10060;BME280;5069;49.306;8.636;2023-08-08T00:54:45;100572.03;;;15.99;100.00
10060;BME280;5069;49.306;8.636;2023-08-08T00:57:46;100555.75;;;16.05;99.90
10060;BME280;5069;49.306;8.636;2023-08-08T01:00:48;100559.47;;;16.01;100.00
10060;BME280;5069;49.306;8.636;2023-08-08T01:03:49;100554.28;;;16.00;100.00
10060;BME280;5069;49.306;8.636;2023-08-08T01:07:03;100554.34;;;15.98;100.00
10060;BME280;5069;49.306;8.636;2023-08-08T01:10:10;100561.84;;;15.90;100.00
10060;BME280;5069;49.306;8.636;2023-08-08T01:13:23;100551.69;;;15.98;99.40
10060;BME280;5069;49.306;8.636;2023-08-08T01:16:27;100558.09;;;15.94;100.00
10060;BME280;5069;49.306;8.636;2023-08-08T01:19:31;100563.25;;;15.97;99.27
10060;BME280;5069;49.306;8.636;2023-08-08T01:22:50;100563.75;;;15.88;100.00
10060;BME280;5069;49.306;8.636;2023-08-08T01:25:59;100555.06;;;15.85;100.00
10060;BME280;5069;49.306;8.636;2023-08-08T01:29:01;100552.72;;;15.79;100.00
10060;BME280;5069;49.306;8.636;2023-08-08T01:32:03;100560.63;;;15.80;100.00
10060;BME280;5069;49.306;8.636;2023-08-08T01:35:06;100555.88;;;15.69;100.00
10060;BME280;5069;49.306;8.636;2023-08-08T01:38:11;100554.22;;;15.67;100.00
10060;BME280;5069;49.306;8.636;2023-08-08T01:41:15;100549.00;;;15.65;100.00
10060;BME280;5069;49.306;8.636;2023-08-08T01:44:17;100544.63;;;15.64;100.00
10060;BME280;5069;49.306;8.636;2023-08-08T01:47:19;100548.91;;;15.67;100.00
10060;BME280;5069;49.306;8.636;2023-08-08T01:50:20;100551.72;;;15.64;100.00
10060;BME280;5069;49.306;8.636;2023-08-08T01:53:22;100551.56;;;15.67;100.00
10060;BME280;5069;49.306;8.636;2023-08-08T01:56:24;100561.13;;;15.71;100.00
10060;BME280;5069;49.306;8.636;2023-08-08T01:59:25;100562.81;;;15.72;100.00
10060;BME280;5069;49.306;8.636;2023-08-08T02:02:27;100554.41;;;15.64;100.00
10060;BME280;5069;49.306;8.636;2023-08-08T02:05:29;100557.13;;;15.62;100.00
10060;BME280;5069;49.306;8.636;2023-08-08T02:08:31;100548.38;;;15.60;100.00
10060;BME280;5069;49.306;8.636;2023-08-08T02:11:34;100550.06;;;15.61;100.00
10060;BME280;5069;49.306;8.636;2023-08-08T02:14:35;100547.34;;;15.63;100.00
10060;BME280;5069;49.306;8.636;2023-08-08T02:17:38;100541.09;;;15.64;100.00
10060;BME280;5069;49.306;8.636;2023-08-08T02:20:40;100542.97;;;15.62;100.00
10060;BME280;5069;49.306;8.636;2023-08-08T02:23:41;100535.31;;;15.56;100.00
10060;BME280;5069;49.306;8.636;2023-08-08T02:26:43;100534.72;;;15.49;100.00
10060;BME280;5069;49.306;8.636;2023-08-08T02:29:44;100535.78;;;15.47;100.00
10060;BME280;5069;49.306;8.636;2023-08-08T02:32:46;100544.66;;;15.46;100.00
10060;BME280;5069;49.306;8.636;2023-08-08T02:35:47;100546.41;;;15.47;100.00
10060;BME280;5069;49.306;8.636;2023-08-08T02:38:49;100549.19;;;15.44;100.00
10060;BME280;5069;49.306;8.636;2023-08-08T02:41:54;100542.31;;;15.40;100.00
10060;BME280;5069;49.306;8.636;2023-08-08T02:44:57;100547.00;;;15.35;100.00
10060;BME280;5069;49.306;8.636;2023-08-08T02:47:59;100543.56;;;15.32;100.00
10060;BME280;5069;49.306;8.636;2023-08-08T02:51:01;100542.72;;;15.32;100.00
10060;BME280;5069;49.306;8.636;2023-08-08T02:54:02;100542.81;;;15.30;100.00
10060;BME280;5069;49.306;8.636;2023-08-08T02:57:07;100543.19;;;15.23;100.00
10060;BME280;5069;49.306;8.636;2023-08-08T03:00:12;100540.47;;;15.24;100.00
10060;BME280;5069;49.306;8.636;2023-08-08T03:03:16;100539.34;;;15.11;100.00
10060;BME280;5069;49.306;8.636;2023-08-08T03:06:19;100540.56;;;15.04;100.00
10060;BME280;5069;49.306;8.636;2023-08-08T03:09:21;100539.03;;;15.00;100.00
10060;BME280;5069;49.306;8.636;2023-08-08T03:12:22;100541.03;;;14.95;100.00
10060;BME280;5069;49.306;8.636;2023-08-08T03:15:26;100533.06;;;14.95;100.00
10060;BME280;5069;49.306;8.636;2023-08-08T03:18:27;100541.03;;;14.95;100.00
10060;BME280;5069;49.306;8.636;2023-08-08T03:21:29;100531.34;;;14.94;100.00
10060;BME280;5069;49.306;8.636;2023-08-08T03:24:31;100534.38;;;14.86;100.00
10060;BME280;5069;49.306;8.636;2023-08-08T03:27:32;100541.72;;;14.81;100.00
10060;BME280;5069;49.306;8.636;2023-08-08T03:30:36;100533.75;;;14.81;100.00
10060;BME280;5069;49.306;8.636;2023-08-08T03:33:41;100540.72;;;14.84;100.00
10060;BME280;5069;49.306;8.636;2023-08-08T03:36:44;100542.44;;;14.85;100.00
10060;BME280;5069;49.306;8.636;2023-08-08T03:39:46;100537.25;;;14.82;100.00
10060;BME280;5069;49.306;8.636;2023-08-08T03:42:47;100527.56;;;14.81;100.00
10060;BME280;5069;49.306;8.636;2023-08-08T03:45:49;100531.88;;;14.83;100.00
10060;BME280;5069;49.306;8.636;2023-08-08T03:48:50;100526.94;;;14.76;100.00
10060;BME280;5069;49.306;8.636;2023-08-08T03:51:54;100533.22;;;14.75;100.00
10060;BME280;5069;49.306;8.636;2023-08-08T03:54:56;100533.13;;;14.76;100.00
10060;BME280;5069;49.306;8.636;2023-08-08T03:57:57;100532.25;;;14.76;100.00
10060;BME280;5069;49.306;8.636;2023-08-08T04:00:59;100535.41;;;14.84;100.00
10060;BME280;5069;49.306;8.636;2023-08-08T04:04:01;100532.06;;;14.80;100.00
10060;BME280;5069;49.306;8.636;2023-08-08T04:07:03;100532.97;;;14.79;100.00
10060;BME280;5069;49.306;8.636;2023-08-08T04:10:05;100535.41;;;14.84;100.00
10060;BME280;5069;49.306;8.636;2023-08-08T04:13:06;100541.00;;;14.78;100.00
10060;BME280;5069;49.306;8.636;2023-08-08T04:16:08;100535.69;;;14.78;100.00
10060;BME280;5069;49.306;8.636;2023-08-08T04:19:09;100533.84;;;14.80;100.00
10060;BME280;5069;49.306;8.636;2023-08-08T04:22:11;100540.84;;;14.81;100.00
10060;BME280;5069;49.306;8.636;2023-08-08T04:25:14;100539.16;;;14.80;100.00
10060;BME280;5069;49.306;8.636;2023-08-08T04:28:16;100552.19;;;14.84;100.00
10060;BME280;5069;49.306;8.636;2023-08-08T04:31:18;100545.09;;;14.85;100.00
10060;BME280;5069;49.306;8.636;2023-08-08T04:34:20;100554.63;;;14.89;100.00
10060;BME280;5069;49.306;8.636;2023-08-08T04:37:22;100551.16;;;14.87;100.00
10060;BME280;5069;49.306;8.636;2023-08-08T04:40:23;100550.31;;;14.86;100.00
10060;BME280;5069;49.306;8.636;2023-08-08T04:43:26;100554.78;;;14.86;100.00
10060;BME280;5069;49.306;8.636;2023-08-08T04:46:29;100547.75;;;14.85;100.00
10060;BME280;5069;49.306;8.636;2023-08-08T04:49:31;100552.13;;;14.86;100.00
10060;BME280;5069;49.306;8.636;2023-08-08T04:52:32;100555.78;;;14.83;100.00
10060;BME280;5069;49.306;8.636;2023-08-08T04:55:33;100556.94;;;14.78;100.00
10060;BME280;5069;49.306;8.636;2023-08-08T04:58:35;100561.25;;;14.80;100.00
10060;BME280;5069;49.306;8.636;2023-08-08T05:01:38;100560.38;;;14.80;100.00
10060;BME280;5069;49.306;8.636;2023-08-08T05:04:39;100560.38;;;14.80;100.00
10060;BME280;5069;49.306;8.636;2023-08-08T05:07:41;100559.50;;;14.79;100.00
10060;BME280;5069;49.306;8.636;2023-08-08T05:10:42;100553.34;;;14.79;100.00
10060;BME280;5069;49.306;8.636;2023-08-08T05:13:44;100555.78;;;14.83;100.00
10060;BME280;5069;49.306;8.636;2023-08-08T05:16:46;100550.69;;;14.79;100.00
10060;BME280;5069;49.306;8.636;2023-08-08T05:19:47;100548.38;;;14.90;100.00
10060;BME280;5069;49.306;8.636;2023-08-08T05:22:49;100540.13;;;14.96;100.00
10060;BME280;5069;49.306;8.636;2023-08-08T05:25:50;100549.56;;;15.02;100.00
10060;BME280;5069;49.306;8.636;2023-08-08T05:28:52;100544.03;;;15.06;100.00
10060;BME280;5069;49.306;8.636;2023-08-08T05:31:53;100551.44;;;15.17;100.00
10060;BME280;5069;49.306;8.636;2023-08-08T05:34:55;100545.91;;;15.21;100.00
10060;BME280;5069;49.306;8.636;2023-08-08T05:37:58;100545.34;;;15.32;100.00
10060;BME280;5069;49.306;8.636;2023-08-08T05:41:00;100548.44;;;15.42;100.00
10060;BME280;5069;49.306;8.636;2023-08-08T05:44:01;100543.88;;;15.44;100.00
10060;BME280;5069;49.306;8.636;2023-08-08T05:47:03;100547.53;;;15.60;100.00
10060;BME280;5069;49.306;8.636;2023-08-08T05:50:05;100538.13;;;15.70;100.00
10060;BME280;5069;49.306;8.636;2023-08-08T05:53:07;100546.72;;;15.75;100.00
10060;BME280;5069;49.306;8.636;2023-08-08T05:56:08;100545.91;;;15.90;100.00
10060;BME280;5069;49.306;8.636;2023-08-08T05:59:10;100548.22;;;15.96;100.00
10060;BME280;5069;49.306;8.636;2023-08-08T06:02:11;100552.47;;;16.00;100.00
10060;BME280;5069;49.306;8.636;2023-08-08T06:05:13;100556.34;;;16.10;100.00
10060;BME280;5069;49.306;8.636;2023-08-08T06:08:15;100556.97;;;16.31;100.00
10060;BME280;5069;49.306;8.636;2023-08-08T06:11:17;100548.66;;;16.37;100.00
10060;BME280;5069;49.306;8.636;2023-08-08T06:14:19;100554.91;;;16.52;100.00
10060;BME280;5069;49.306;8.636;2023-08-08T06:17:20;100557.84;;;16.47;100.00
10060;BME280;5069;49.306;8.636;2023-08-08T06:20:24;100553.13;;;16.52;100.00
10060;BME280;5069;49.306;8.636;2023-08-08T06:23:26;100554.66;;;16.74;99.12
10060;BME280;5069;49.306;8.636;2023-08-08T06:26:27;100547.59;;;16.73;100.00
10060;BME280;5069;49.306;8.636;2023-08-08T06:29:29;100549.47;;;16.71;100.00
10060;BME280;5069;49.306;8.636;2023-08-08T06:32:32;100553.25;;;16.82;99.20
10060;BME280;5069;49.306;8.636;2023-08-08T06:35:34;100558.75;;;16.79;98.13
10060;BME280;5069;49.306;8.636;2023-08-08T06:38:35;100554.19;;;16.81;97.49
10060;BME280;5069;49.306;8.636;2023-08-08T06:41:37;100558.75;;;16.79;98.21
10060;BME280;5069;49.306;8.636;2023-08-08T06:44:44;100552.56;;;16.79;95.88
10060;BME280;5069;49.306;8.636;2023-08-08T06:47:45;100553.44;;;16.79;95.79
10060;BME280;5069;49.306;8.636;2023-08-08T06:50:47;100551.38;;;16.84;96.09
10060;BME280;5069;49.306;8.636;2023-08-08T06:53:49;100551.19;;;16.87;95.90
10060;BME280;5069;49.306;8.636;2023-08-08T06:56:51;100543.16;;;17.03;96.52
10060;BME280;5069;49.306;8.636;2023-08-08T06:59:52;100544.91;;;17.34;92.89
10060;BME280;5069;49.306;8.636;2023-08-08T07:02:54;100546.41;;;17.24;90.30
10060;BME280;5069;49.306;8.636;2023-08-08T07:05:56;100540.25;;;17.38;91.66
10060;BME280;5069;49.306;8.636;2023-08-08T07:08:58;100550.50;;;17.59;87.96
10060;BME280;5069;49.306;8.636;2023-08-08T07:12:00;100549.16;;;17.52;88.68
10060;BME280;5069;49.306;8.636;2023-08-08T07:15:03;100561.78;;;17.64;86.50
10060;BME280;5069;49.306;8.636;2023-08-08T07:18:05;100544.28;;;17.74;85.04
10060;BME280;5069;49.306;8.636;2023-08-08T07:21:06;100542.38;;;17.77;84.32
10060;BME280;5069;49.306;8.636;2023-08-08T07:24:08;100541.44;;;17.92;82.42
10060;BME280;5069;49.306;8.636;2023-08-08T07:27:11;100534.94;;;17.96;84.38
10060;BME280;5069;49.306;8.636;2023-08-08T07:30:13;100546.66;;;18.07;81.87
10060;BME280;5069;49.306;8.636;2023-08-08T07:33:14;100540.09;;;18.13;76.46
10060;BME280;5069;49.306;8.636;2023-08-08T07:36:16;100536.47;;;18.28;78.59
10060;BME280;5069;49.306;8.636;2023-08-08T07:39:17;100543.41;;;18.31;78.94
10060;BME280;5069;49.306;8.636;2023-08-08T07:42:19;100545.44;;;18.27;74.22
10060;BME280;5069;49.306;8.636;2023-08-08T07:45:20;100541.31;;;18.36;73.41
10060;BME280;5069;49.306;8.636;2023-08-08T07:48:22;100543.69;;;18.40;73.24
10060;BME280;5069;49.306;8.636;2023-08-08T07:51:24;100539.56;;;18.63;75.49
10060;BME280;5069;49.306;8.636;2023-08-08T07:54:25;100542.00;;;18.80;74.41
10060;BME280;5069;49.306;8.636;2023-08-08T07:57:27;100536.09;;;18.89;71.13
10060;BME280;5069;49.306;8.636;2023-08-08T08:00:29;100535.53;;;18.84;71.60
10060;BME280;5069;49.306;8.636;2023-08-08T08:03:30;100530.69;;;18.77;72.24
10060;BME280;5069;49.306;8.636;2023-08-08T08:06:32;100527.00;;;18.92;73.30
10060;BME280;5069;49.306;8.636;2023-08-08T08:09:33;100528.31;;;18.99;70.71
10060;BME280;5069;49.306;8.636;2023-08-08T08:12:35;100532.88;;;19.24;66.90
10060;BME280;5069;49.306;8.636;2023-08-08T08:15:37;100524.47;;;19.03;62.20
10060;BME280;5069;49.306;8.636;2023-08-08T08:18:39;100525.28;;;18.91;64.45
10060;BME280;5069;49.306;8.636;2023-08-08T08:21:40;100534.03;;;19.07;63.14
10060;BME280;5069;49.306;8.636;2023-08-08T08:24:42;100534.75;;;19.09;64.03
10060;BME280;5069;49.306;8.636;2023-08-08T08:27:43;100532.50;;;19.03;63.71
10060;BME280;5069;49.306;8.636;2023-08-08T08:30:45;100521.78;;;19.30;64.73
10060;BME280;5069;49.306;8.636;2023-08-08T08:33:46;100522.00;;;19.39;65.63
10060;BME280;5069;49.306;8.636;2023-08-08T08:36:48;100521.66;;;19.31;64.91
10060;BME280;5069;49.306;8.636;2023-08-08T08:39:49;100522.06;;;19.25;66.29
10060;BME280;5069;49.306;8.636;2023-08-08T08:42:51;100512.25;;;19.26;64.95
10060;BME280;5069;49.306;8.636;2023-08-08T08:45:53;100516.53;;;19.28;65.19
10060;BME280;5069;49.306;8.636;2023-08-08T08:48:58;100510.47;;;19.39;64.94
10060;BME280;5069;49.306;8.636;2023-08-08T08:52:01;100513.22;;;19.37;64.87
10060;BME280;5069;49.306;8.636;2023-08-08T08:55:03;100505.22;;;19.37;65.74
10060;BME280;5069;49.306;8.636;2023-08-08T08:58:05;100503.97;;;19.56;66.28
10060;BME280;5069;49.306;8.636;2023-08-08T09:01:07;100503.69;;;19.73;64.36
10060;BME280;5069;49.306;8.636;2023-08-08T09:04:10;100500.56;;;19.79;63.94
10060;BME280;5069;49.306;8.636;2023-08-08T09:07:12;100502.06;;;19.83;63.68
10060;BME280;5069;49.306;8.636;2023-08-08T09:10:15;100496.09;;;19.92;62.51
10060;BME280;5069;49.306;8.636;2023-08-08T09:13:18;100492.88;;;19.87;60.46
10060;BME280;5069;49.306;8.636;2023-08-08T09:16:19;100503.16;;;19.93;60.40
10060;BME280;5069;49.306;8.636;2023-08-08T09:19:21;100494.88;;;19.96;60.86
10060;BME280;5069;49.306;8.636;2023-08-08T09:22:23;100503.44;;;20.14;57.72
10060;BME280;5069;49.306;8.636;2023-08-08T09:25:26;100502.66;;;20.25;57.16
10060;BME280;5069;49.306;8.636;2023-08-08T09:28:28;100495.41;;;20.14;57.98
10060;BME280;5069;49.306;8.636;2023-08-08T09:31:29;100489.78;;;20.30;58.52
10060;BME280;5069;49.306;8.636;2023-08-08T09:34:32;100489.00;;;20.53;56.99
10060;BME280;5069;49.306;8.636;2023-08-08T09:37:34;100494.75;;;20.36;54.60
10060;BME280;5069;49.306;8.636;2023-08-08T09:40:36;100491.19;;;20.48;54.41
10060;BME280;5069;49.306;8.636;2023-08-08T09:43:37;100484.84;;;20.49;51.16
10060;BME280;5069;49.306;8.636;2023-08-08T09:46:39;100488.22;;;20.63;50.75
10060;BME280;5069;49.306;8.636;2023-08-08T09:49:42;100478.47;;;20.86;51.44
10060;BME280;5069;49.306;8.636;2023-08-08T09:52:45;100479.50;;;20.96;52.44
10060;BME280;5069;49.306;8.636;2023-08-08T09:55:48;100485.22;;;21.16;52.00
10060;BME280;5069;49.306;8.636;2023-08-08T09:58:51;100485.72;;;21.21;51.63
10060;BME280;5069;49.306;8.636;2023-08-08T10:01:53;100482.22;;;21.08;50.96
10060;BME280;5069;49.306;8.636;2023-08-08T10:04:56;100473.31;;;21.31;52.97
10060;BME280;5069;49.306;8.636;2023-08-08T10:08:00;100471.63;;;21.30;50.33
10060;BME280;5069;49.306;8.636;2023-08-08T10:11:02;100474.34;;;21.41;51.41
10060;BME280;5069;49.306;8.636;2023-08-08T10:14:09;100474.84;;;21.57;50.70
10060;BME280;5069;49.306;8.636;2023-08-08T10:17:15;100476.19;;;21.17;50.58
10060;BME280;5069;49.306;8.636;2023-08-08T10:20:18;100480.81;;;21.15;51.33
10060;BME280;5069;49.306;8.636;2023-08-08T10:23:20;100473.81;;;21.36;51.50
10060;BME280;5069;49.306;8.636;2023-08-08T10:26:21;100467.75;;;21.56;51.01
10060;BME280;5069;49.306;8.636;2023-08-08T10:29:25;100474.13;;;21.66;49.84
10060;BME280;5069;49.306;8.636;2023-08-08T10:32:27;100464.13;;;21.57;49.92
10060;BME280;5069;49.306;8.636;2023-08-08T10:35:36;100472.66;;;21.73;49.32
10060;BME280;5069;49.306;8.636;2023-08-08T10:41:49;100451.09;;;21.86;48.91
10060;BME280;5069;49.306;8.636;2023-08-08T10:44:53;100450.38;;;21.95;48.45
10060;BME280;5069;49.306;8.636;2023-08-08T10:47:56;100453.78;;;21.86;45.87
10060;BME280;5069;49.306;8.636;2023-08-08T10:50:58;100457.66;;;21.82;46.25
10060;BME280;5069;49.306;8.636;2023-08-08T10:54:04;100449.50;;;21.83;46.34
10060;BME280;5069;49.306;8.636;2023-08-08T10:57:15;100442.69;;;22.13;47.72
10060;BME280;5069;49.306;8.636;2023-08-08T11:00:17;100437.56;;;22.21;46.03
10060;BME280;5069;49.306;8.636;2023-08-08T11:03:20;100430.44;;;22.31;47.08
10060;BME280;5069;49.306;8.636;2023-08-08T11:06:22;100435.28;;;22.48;46.50
10060;BME280;5069;49.306;8.636;2023-08-08T11:09:24;100441.63;;;22.47;45.54
10060;BME280;5069;49.306;8.636;2023-08-08T11:12:27;100428.63;;;22.32;42.64
10060;BME280;5069;49.306;8.636;2023-08-08T11:15:30;100434.97;;;22.31;45.14
10060;BME280;5069;49.306;8.636;2023-08-08T11:18:33;100436.22;;;22.58;45.51
10060;BME280;5069;49.306;8.636;2023-08-08T11:21:36;100439.16;;;22.78;42.47
10060;BME280;5069;49.306;8.636;2023-08-08T11:24:38;100452.19;;;22.71;42.58
10060;BME280;5069;49.306;8.636;2023-08-08T11:27:48;100443.91;;;22.63;41.56
10060;BME280;5069;49.306;8.636;2023-08-08T11:30:50;100444.56;;;22.55;41.71
10060;BME280;5069;49.306;8.636;2023-08-08T11:33:55;100425.56;;;22.36;41.10
10060;BME280;5069;49.306;8.636;2023-08-08T11:36:58;100424.78;;;22.45;41.02
10060;BME280;5069;49.306;8.636;2023-08-08T11:40:00;100429.03;;;22.59;42.00
10060;BME280;5069;49.306;8.636;2023-08-08T11:43:02;100428.72;;;22.84;41.98
10060;BME280;5069;49.306;8.636;2023-08-08T11:46:04;100424.00;;;22.77;41.83
10060;BME280;5069;49.306;8.636;2023-08-08T11:49:06;100424.13;;;22.75;40.94
10060;BME280;5069;49.306;8.636;2023-08-08T11:52:08;100430.88;;;22.90;40.07
10060;BME280;5069;49.306;8.636;2023-08-08T11:55:10;100416.56;;;23.01;40.26
10060;BME280;5069;49.306;8.636;2023-08-08T11:58:14;100424.88;;;22.98;39.21
10060;BME280;5069;49.306;8.636;2023-08-08T12:01:19;100418.69;;;23.07;38.23
10060;BME280;5069;49.306;8.636;2023-08-08T12:04:21;100424.88;;;23.19;39.50
10060;BME280;5069;49.306;8.636;2023-08-08T12:07:24;100407.69;;;23.31;37.82
10060;BME280;5069;49.306;8.636;2023-08-08T12:10:26;100419.16;;;22.91;37.33
10060;BME280;5069;49.306;8.636;2023-08-08T12:13:27;100408.47;;;23.22;38.15
10060;BME280;5069;49.306;8.636;2023-08-08T12:16:30;100412.66;;;23.35;37.28
10060;BME280;5069;49.306;8.636;2023-08-08T12:19:35;100415.75;;;23.31;38.18
10060;BME280;5069;49.306;8.636;2023-08-08T12:22:37;100410.53;;;23.29;39.78
10060;BME280;5069;49.306;8.636;2023-08-08T12:25:39;100404.47;;;23.58;40.72
10060;BME280;5069;49.306;8.636;2023-08-08T12:28:40;100397.56;;;23.65;39.60
10060;BME280;5069;49.306;8.636;2023-08-08T12:31:42;100388.94;;;23.71;40.48
10060;BME280;5069;49.306;8.636;2023-08-08T12:34:43;100395.78;;;23.75;40.52
10060;BME280;5069;49.306;8.636;2023-08-08T12:37:45;100396.66;;;23.85;39.85
10060;BME280;5069;49.306;8.636;2023-08-08T12:40:46;100390.41;;;23.84;38.83
10060;BME280;5069;49.306;8.636;2023-08-08T12:43:48;100393.81;;;23.86;39.35
10060;BME280;5069;49.306;8.636;2023-08-08T12:46:51;100393.25;;;23.93;37.84
10060;BME280;5069;49.306;8.636;2023-08-08T12:49:52;100388.59;;;23.85;38.33
10060;BME280;5069;49.306;8.636;2023-08-08T12:52:54;100401.75;;;23.88;39.71
10060;BME280;5069;49.306;8.636;2023-08-08T12:55:56;100390.19;;;23.97;38.39
10060;BME280;5069;49.306;8.636;2023-08-08T12:58:57;100389.81;;;23.81;39.26
10060;BME280;5069;49.306;8.636;2023-08-08T13:01:59;100379.06;;;23.81;38.47
10060;BME280;5069;49.306;8.636;2023-08-08T13:05:00;100373.75;;;24.10;37.46
10060;BME280;5069;49.306;8.636;2023-08-08T13:08:05;100374.94;;;24.26;37.90
10060;BME280;5069;49.306;8.636;2023-08-08T13:11:07;100369.59;;;24.46;38.63
10060;BME280;5069;49.306;8.636;2023-08-08T13:14:08;100371.19;;;24.48;36.44
10060;BME280;5069;49.306;8.636;2023-08-08T13:17:10;100382.63;;;24.31;34.83
10060;BME280;5069;49.306;8.636;2023-08-08T13:20:11;100373.53;;;24.32;35.47
10060;BME280;5069;49.306;8.636;2023-08-08T13:23:13;100378.03;;;24.12;37.33
10060;BME280;5069;49.306;8.636;2023-08-08T13:26:15;100377.91;;;24.14;36.65
10060;BME280;5069;49.306;8.636;2023-08-08T13:29:16;100381.94;;;23.99;36.68
10060;BME280;5069;49.306;8.636;2023-08-08T13:32:18;100364.94;;;23.98;36.79
10060;BME280;5069;49.306;8.636;2023-08-08T13:35:20;100381.81;;;24.00;35.48
10060;BME280;5069;49.306;8.636;2023-08-08T13:38:21;100389.34;;;23.97;36.52
10060;BME280;5069;49.306;8.636;2023-08-08T13:41:25;100387.72;;;23.84;36.99
10060;BME280;5069;49.306;8.636;2023-08-08T13:44:27;100379.47;;;23.76;36.60
10060;BME280;5069;49.306;8.636;2023-08-08T13:47:28;100381.25;;;23.57;37.24
10060;BME280;5069;49.306;8.636;2023-08-08T13:50:30;100385.06;;;23.64;38.00
10060;BME280;5069;49.306;8.636;2023-08-08T13:53:31;100389.09;;;23.69;37.55
10060;BME280;5069;49.306;8.636;2023-08-08T13:56:33;100377.41;;;23.99;37.73
10060;BME280;5069;49.306;8.636;2023-08-08T13:59:35;100372.97;;;24.19;37.50
10060;BME280;5069;49.306;8.636;2023-08-08T14:02:36;100362.06;;;24.20;36.61
10060;BME280;5069;49.306;8.636;2023-08-08T14:05:38;100368.31;;;24.31;37.91
10060;BME280;5069;49.306;8.636;2023-08-08T14:08:39;100369.84;;;24.23;37.40
10060;BME280;5069;49.306;8.636;2023-08-08T14:11:41;100368.91;;;24.04;37.00
10060;BME280;5069;49.306;8.636;2023-08-08T14:14:42;100363.97;;;23.99;37.98
10060;BME280;5069;49.306;8.636;2023-08-08T14:17:44;100374.63;;;24.10;38.42
10060;BME280;5069;49.306;8.636;2023-08-08T14:20:46;100363.66;;;23.93;37.96
10060;BME280;5069;49.306;8.636;2023-08-08T14:23:48;100353.28;;;23.88;38.74
10060;BME280;5069;49.306;8.636;2023-08-08T14:26:50;100368.34;;;24.00;38.38
10060;BME280;5069;49.306;8.636;2023-08-08T14:29:51;100355.91;;;24.09;36.95
10060;BME280;5069;49.306;8.636;2023-08-08T14:32:53;100355.13;;;23.87;37.54
10060;BME280;5069;49.306;8.636;2023-08-08T14:35:55;100360.22;;;24.31;37.48
10060;BME280;5069;49.306;8.636;2023-08-08T14:38:56;100345.22;;;24.76;37.11
10060;BME280;5069;49.306;8.636;2023-08-08T14:41:58;100358.81;;;24.84;37.22
10060;BME280;5069;49.306;8.636;2023-08-08T14:45:00;100364.22;;;24.65;37.50
10060;BME280;5069;49.306;8.636;2023-08-08T14:48:02;100359.81;;;24.74;36.77
10060;BME280;5069;49.306;8.636;2023-08-08T14:51:03;100347.91;;;24.76;37.01
10060;BME280;5069;49.306;8.636;2023-08-08T14:54:05;100350.75;;;24.46;38.01
10060;BME280;5069;49.306;8.636;2023-08-08T14:57:07;100350.81;;;24.15;39.31
10060;BME280;5069;49.306;8.636;2023-08-08T15:00:09;100348.78;;;23.98;39.99
10060;BME280;5069;49.306;8.636;2023-08-08T15:03:14;100356.22;;;23.75;40.17
10060;BME280;5069;49.306;8.636;2023-08-08T15:06:16;100352.69;;;23.44;39.93
10060;BME280;5069;49.306;8.636;2023-08-08T15:09:17;100354.91;;;23.09;40.79
10060;BME280;5069;49.306;8.636;2023-08-08T15:12:19;100363.03;;;22.98;41.03
10060;BME280;5069;49.306;8.636;2023-08-08T15:15:20;100356.56;;;23.00;40.95
10060;BME280;5069;49.306;8.636;2023-08-08T15:18:24;100359.53;;;23.07;40.97
10060;BME280;5069;49.306;8.636;2023-08-08T15:21:26;100363.69;;;23.11;41.41
10060;BME280;5069;49.306;8.636;2023-08-08T15:24:27;100365.47;;;23.01;41.56
10060;BME280;5069;49.306;8.636;2023-08-08T15:27:29;100365.31;;;22.82;41.85
10060;BME280;5069;49.306;8.636;2023-08-08T15:30:31;100372.94;;;22.97;42.14
10060;BME280;5069;49.306;8.636;2023-08-08T15:33:33;100372.34;;;22.94;42.76
10060;BME280;5069;49.306;8.636;2023-08-08T15:36:35;100368.69;;;22.95;42.85
10060;BME280;5069;49.306;8.636;2023-08-08T15:39:36;100367.75;;;23.05;42.80
10060;BME280;5069;49.306;8.636;2023-08-08T15:42:38;100372.06;;;22.97;42.55
10060;BME280;5069;49.306;8.636;2023-08-08T15:45:41;100367.88;;;23.04;43.09
10060;BME280;5069;49.306;8.636;2023-08-08T15:48:43;100364.69;;;22.89;43.60
10060;BME280;5069;49.306;8.636;2023-08-08T15:51:45;100366.44;;;23.00;43.81
10060;BME280;5069;49.306;8.636;2023-08-08T15:54:48;100379.44;;;22.95;43.48
10060;BME280;5069;49.306;8.636;2023-08-08T15:57:49;100374.75;;;22.76;43.70
10060;BME280;5069;49.306;8.636;2023-08-08T16:00:51;100370.25;;;22.77;44.06
10060;BME280;5069;49.306;8.636;2023-08-08T16:03:53;100378.50;;;22.85;43.76